Time;durP1;ratioP1;P1;durP2;ratioP2;P2;SDS_P1;SDS_P2;PMS_P1;PMS_P2;Temp;Humidity;BMP_temperature;BMP_pressure;BME280_temperature;BME280_humidity;BME280_pressure;Samples;Min_cycle;Max_cycle;Signal;HPM_P1;HPM_P2
2022/06/20 00:01:30;;;;;;;7.15;5.85;;;25.70;52.80;;;;;;5016118;28;20197;-67
2022/06/20 00:03:58;;;;;;;6.60;5.53;;;25.70;52.80;;;;;;5015802;28;20228;-67
2022/06/20 00:06:25;;;;;;;6.65;5.88;;;25.80;52.80;;;;;;5017259;28;20594;-67
2022/06/20 00:08:53;;;;;;;6.20;5.60;;;25.70;52.90;;;;;;5017155;28;20217;-67
2022/06/20 00:11:22;;;;;;;6.22;5.43;;;25.70;53.50;;;;;;5016726;28;20685;-67
2022/06/20 00:13:51;;;;;;;6.60;5.97;;;25.70;52.90;;;;;;5015874;28;20203;-67
2022/06/20 00:16:18;;;;;;;7.72;5.90;;;25.70;52.90;;;;;;5015836;28;20265;-67
2022/06/20 00:18:46;;;;;;;7.38;5.97;;;25.70;52.90;;;;;;5015481;28;20230;-67
2022/06/20 00:21:13;;;;;;;6.70;6.00;;;25.70;52.90;;;;;;5015248;28;20228;-67
2022/06/20 00:23:40;;;;;;;7.00;6.10;;;25.70;53.00;;;;;;5015542;28;20201;-67
2022/06/20 00:26:09;;;;;;;6.55;5.82;;;25.60;52.90;;;;;;5016910;28;20725;-67
2022/06/20 00:28:36;;;;;;;6.45;5.85;;;25.60;53.00;;;;;;5016171;28;20216;-67
2022/06/20 00:31:03;;;;;;;7.60;5.97;;;25.60;53.10;;;;;;5016889;28;20193;-67
2022/06/20 00:33:31;;;;;;;7.32;6.18;;;25.60;53.10;;;;;;5015323;28;20216;-66
2022/06/20 00:35:58;;;;;;;6.50;5.95;;;25.60;53.70;;;;;;5017124;28;20653;-66
2022/06/20 00:38:25;;;;;;;7.38;6.00;;;25.60;53.10;;;;;;5014083;28;20219;-67
2022/06/20 00:40:53;;;;;;;7.95;6.22;;;25.60;53.20;;;;;;5016345;28;20268;-67
2022/06/20 00:43:24;;;;;;;7.05;6.05;;;25.60;53.20;;;;;;5020390;28;20223;-68
2022/06/20 00:45:52;;;;;;;6.65;6.05;;;25.50;53.20;;;;;;5019586;28;20188;-67
2022/06/20 00:48:21;;;;;;;7.15;6.10;;;25.60;53.30;;;;;;5015712;28;20228;-67
2022/06/20 00:50:49;;;;;;;7.90;6.32;;;25.50;53.20;;;;;;5015186;28;20236;-67
2022/06/20 00:53:19;;;;;;;7.30;5.82;;;25.50;53.30;;;;;;5016684;28;20208;-67
2022/06/20 00:55:48;;;;;;;7.70;6.47;;;25.50;53.40;;;;;;5015303;28;20200;-67
2022/06/20 00:58:18;;;;;;;8.48;6.75;;;25.50;53.40;;;;;;5014715;28;20196;-67
2022/06/20 01:00:46;;;;;;;7.85;6.38;;;25.50;53.40;;;;;;5016373;28;20204;-67
2022/06/20 01:03:14;;;;;;;6.80;6.20;;;25.40;53.30;;;;;;5015710;28;20270;-67
2022/06/20 01:05:45;;;;;;;7.32;6.38;;;25.40;53.40;;;;;;5014546;28;20676;-67
2022/06/20 01:08:15;;;;;;;8.98;6.50;;;25.40;53.50;;;;;;5016021;28;20181;-67
2022/06/20 01:10:43;;;;;;;7.07;6.25;;;25.50;53.60;;;;;;5014545;28;20307;-66
2022/06/20 01:13:12;;;;;;;8.88;6.28;;;25.40;53.50;;;;;;5014195;28;20231;-67
2022/06/20 01:15:40;;;;;;;7.97;6.43;;;25.40;53.60;;;;;;5014593;28;20216;-67
2022/06/20 01:18:14;;;;;;;7.22;6.53;;;25.40;53.50;;;;;;5015624;28;20279;-67
2022/06/20 01:20:42;;;;;;;9.45;7.30;;;25.40;53.80;;;;;;5014404;28;20185;-67
2022/06/20 01:23:17;;;;;;;8.32;6.75;;;25.40;54.40;;;;;;5015608;28;20264;-65
2022/06/20 01:25:54;;;;;;;7.75;6.82;;;25.40;54.40;;;;;;5014780;28;20284;-66
2022/06/20 01:28:24;;;;;;;8.50;6.70;;;25.40;54.60;;;;;;5014032;28;20764;-66
2022/06/20 01:30:52;;;;;;;8.93;7.18;;;25.40;54.60;;;;;;5014345;28;20227;-67
2022/06/20 01:33:21;;;;;;;8.70;6.75;;;25.40;54.60;;;;;;5014500;28;20220;-67
2022/06/20 01:38:33;;;;;;;8.30;6.72;;;25.40;54.90;;;;;;5013774;28;20180;-66
2022/06/20 01:43:46;;;;;;;7.47;6.43;;;25.40;55.20;;;;;;5013581;28;20262;-66
2022/06/20 01:46:14;;;;;;;8.38;7.22;;;25.40;55.40;;;;;;5014792;28;20243;-66
2022/06/20 01:48:42;;;;;;;8.52;6.65;;;25.40;55.50;;;;;;5013486;28;20197;-67
2022/06/20 01:51:14;;;;;;;8.82;7.30;;;25.30;55.80;;;;;;5013238;28;20220;-66
2022/06/20 01:53:43;;;;;;;10.70;7.13;;;25.30;55.80;;;;;;5015426;28;20195;-67
2022/06/20 01:56:10;;;;;;;11.57;6.85;;;25.30;56.00;;;;;;5014571;28;20196;-67
2022/06/20 01:58:38;;;;;;;8.95;7.25;;;25.30;56.20;;;;;;5013846;28;20255;-66
2022/06/20 02:01:07;;;;;;;12.90;7.00;;;25.30;56.40;;;;;;5013690;28;20227;-67
2022/06/20 02:03:35;;;;;;;11.55;7.38;;;25.30;56.50;;;;;;5014963;28;20209;-65
2022/06/20 02:06:03;;;;;;;10.90;7.03;;;25.30;56.60;;;;;;5014782;28;20270;-66
2022/06/20 02:08:29;;;;;;;9.57;7.10;;;25.30;56.70;;;;;;5013522;28;20193;-66
2022/06/20 02:11:00;;;;;;;8.65;7.55;;;25.30;56.90;;;;;;5014304;28;20283;-67
2022/06/20 02:13:28;;;;;;;7.95;7.18;;;25.30;57.10;;;;;;5013615;28;20243;-67
2022/06/20 02:15:58;;;;;;;8.77;7.07;;;25.30;57.20;;;;;;5014593;28;20197;-67
2022/06/20 02:18:29;;;;;;;9.23;7.45;;;25.30;57.30;;;;;;5014535;28;20185;-66
2022/06/20 02:20:56;;;;;;;11.48;7.57;;;25.30;57.50;;;;;;5013204;28;20586;-67
2022/06/20 02:23:26;;;;;;;10.00;7.60;;;25.30;57.50;;;;;;5013560;28;20223;-66
2022/06/20 02:25:54;;;;;;;10.80;7.10;;;25.30;57.60;;;;;;5013411;28;20236;-67
2022/06/20 02:28:23;;;;;;;12.82;7.32;;;25.30;57.70;;;;;;5014396;28;20185;-67
2022/06/20 02:30:49;;;;;;;12.02;7.28;;;25.30;58.40;;;;;;5013200;28;20226;-66
2022/06/20 02:33:19;;;;;;;9.05;6.60;;;25.30;57.90;;;;;;5012732;28;20232;-67
2022/06/20 02:35:48;;;;;;;9.15;6.70;;;25.30;57.90;;;;;;5013089;28;20192;-67
2022/06/20 02:38:15;;;;;;;7.82;7.03;;;25.30;58.00;;;;;;5013015;28;20208;-67
2022/06/20 02:40:42;;;;;;;10.10;7.15;;;25.30;58.10;;;;;;5012960;28;20639;-67
2022/06/20 02:43:12;;;;;;;11.25;7.40;;;25.30;58.10;;;;;;5012647;28;20247;-66
2022/06/20 02:45:40;;;;;;;8.95;7.22;;;25.30;58.20;;;;;;5014100;28;20607;-66
2022/06/20 02:48:08;;;;;;;9.40;7.05;;;25.30;58.30;;;;;;5012751;28;20661;-66
2022/06/20 02:50:37;;;;;;;9.70;7.10;;;25.30;58.20;;;;;;5012879;28;20213;-67
2022/06/20 02:53:08;;;;;;;9.10;6.97;;;25.30;58.40;;;;;;5012613;28;20223;-66
2022/06/20 02:55:35;;;;;;;9.70;6.85;;;25.30;58.40;;;;;;5013320;28;20189;-67
2022/06/20 02:58:06;;;;;;;8.95;7.10;;;25.30;58.90;;;;;;5014098;28;20196;-66
2022/06/20 03:00:36;;;;;;;10.23;7.13;;;25.20;58.50;;;;;;5012397;28;20201;-67
2022/06/20 03:03:05;;;;;;;9.60;6.93;;;25.20;58.60;;;;;;5013753;28;20223;-67
2022/06/20 03:05:32;;;;;;;9.80;7.43;;;25.30;58.50;;;;;;5014408;28;20184;-67
2022/06/20 03:08:00;;;;;;;12.98;7.70;;;25.20;58.70;;;;;;5012617;28;20251;-66
2022/06/20 03:10:29;;;;;;;9.48;7.40;;;25.30;58.70;;;;;;5013981;28;20223;-67
2022/06/20 03:12:57;;;;;;;10.20;7.00;;;25.20;58.80;;;;;;5014492;28;20212;-67
2022/06/20 03:15:23;;;;;;;12.13;7.65;;;25.20;58.90;;;;;;5012722;28;20230;-65
2022/06/20 03:17:51;;;;;;;11.07;7.13;;;25.30;59.50;;;;;;5012879;28;20228;-67
2022/06/20 03:20:19;;;;;;;10.63;7.15;;;25.30;59.60;;;;;;5014113;28;20259;-67
2022/06/20 03:22:50;;;;;;;9.60;6.75;;;25.30;59.70;;;;;;5012831;28;20256;-67
2022/06/20 03:25:17;;;;;;;10.60;7.57;;;25.30;59.80;;;;;;5012987;28;20593;-67
2022/06/20 03:27:45;;;;;;;10.80;7.50;;;25.30;59.70;;;;;;5012564;28;20200;-67
2022/06/20 03:30:29;;;;;;;11.45;7.60;;;25.30;59.70;;;;;;5012616;28;20352;-67
2022/06/20 03:32:56;;;;;;;12.02;7.28;;;25.30;59.60;;;;;;5012929;28;20709;-67
2022/06/20 03:35:23;;;;;;;12.15;7.10;;;25.30;59.60;;;;;;5013899;28;20275;-66
2022/06/20 03:37:50;;;;;;;11.10;6.97;;;25.30;59.60;;;;;;5012356;28;20201;-67
2022/06/20 03:40:17;;;;;;;11.65;7.43;;;25.30;59.50;;;;;;5012588;28;20219;-67
2022/06/20 03:42:45;;;;;;;10.40;6.97;;;25.30;59.40;;;;;;5012139;28;20320;-67
2022/06/20 03:45:14;;;;;;;8.50;6.40;;;25.30;59.40;;;;;;5012043;28;20300;-67
2022/06/20 03:47:43;;;;;;;13.82;6.68;;;25.40;59.40;;;;;;5012156;28;20220;-67
2022/06/20 03:50:12;;;;;;;11.57;6.93;;;25.30;59.50;;;;;;5013082;28;20212;-67
2022/06/20 03:52:40;;;;;;;10.48;6.95;;;25.40;59.50;;;;;;5011975;28;20228;-67
2022/06/20 03:55:10;;;;;;;8.13;6.60;;;25.40;59.60;;;;;;5013372;28;20220;-67
2022/06/20 03:57:39;;;;;;;12.10;7.30;;;25.30;59.40;;;;;;5012106;28;20211;-67
2022/06/20 04:00:13;;;;;;;7.90;6.85;;;25.40;59.50;;;;;;5012186;28;20563;-67
2022/06/20 04:02:41;;;;;;;11.57;6.45;;;25.40;59.50;;;;;;5013521;28;20701;-68
2022/06/20 04:05:11;;;;;;;11.23;6.75;;;25.30;59.40;;;;;;5012041;28;20212;-65
2022/06/20 04:07:41;;;;;;;10.27;6.68;;;25.40;59.40;;;;;;5013501;28;20193;-66
2022/06/20 04:12:59;;;;;;;12.10;6.55;;;25.30;59.40;;;;;;5013284;28;20224;-67
2022/06/20 04:15:30;;;;;;;12.82;6.82;;;25.40;59.50;;;;;;5017411;28;20185;-67
2022/06/20 04:20:46;;;;;;;12.65;7.90;;;25.30;63.60;;;;;;5015889;28;20185;-66
2022/06/20 04:23:15;;;;;;;15.00;7.72;;;25.30;64.20;;;;;;5016084;28;20216;-65
2022/06/20 04:25:45;;;;;;;13.32;7.95;;;25.10;64.00;;;;;;5016103;28;20205;-67
2022/06/20 04:28:15;;;;;;;14.48;8.23;;;24.90;65.50;;;;;;5015745;28;20604;-67
2022/06/20 04:30:46;;;;;;;12.30;7.72;;;24.80;66.20;;;;;;5015927;28;20572;-67
2022/06/20 04:33:14;;;;;;;12.20;8.25;;;24.80;66.30;;;;;;5015538;28;20279;-67
2022/06/20 04:35:44;;;;;;;14.38;7.20;;;24.80;66.20;;;;;;5016008;28;20223;-67
2022/06/20 04:38:14;;;;;;;11.02;7.50;;;24.70;66.50;;;;;;5016487;28;20197;-66
2022/06/20 04:40:44;;;;;;;11.85;7.50;;;24.50;66.80;;;;;;5016873;28;20699;-67
2022/06/20 04:43:13;;;;;;;11.90;7.35;;;24.40;67.10;;;;;;5015084;28;20220;-66
2022/06/20 04:45:42;;;;;;;14.65;7.45;;;24.30;67.90;;;;;;5015343;28;20201;-67
2022/06/20 04:48:12;;;;;;;11.15;7.30;;;24.30;67.60;;;;;;5015600;28;20212;-67
2022/06/20 04:50:41;;;;;;;12.52;7.80;;;24.30;67.70;;;;;;5014798;28;20226;-67
2022/06/20 04:53:10;;;;;;;11.18;7.47;;;24.30;68.30;;;;;;5015157;28;20308;-67
2022/06/20 04:55:40;;;;;;;11.13;7.82;;;24.30;68.00;;;;;;5016511;28;20223;-66
2022/06/20 04:58:09;;;;;;;11.25;6.75;;;24.30;68.50;;;;;;5014709;28;20204;-66
2022/06/20 05:00:37;;;;;;;7.70;6.57;;;24.30;67.50;;;;;;5015826;28;20193;-67
2022/06/20 05:03:04;;;;;;;8.10;6.28;;;24.40;66.40;;;;;;5014714;28;20216;-67
2022/06/20 05:05:34;;;;;;;9.80;6.88;;;24.50;65.50;;;;;;5014626;28;20204;-67
2022/06/20 05:08:02;;;;;;;8.63;6.25;;;24.50;64.90;;;;;;5014679;28;20267;-67
2022/06/20 05:10:31;;;;;;;7.30;6.03;;;24.50;64.50;;;;;;5014651;28;20240;-67
2022/06/20 05:13:01;;;;;;;11.73;6.57;;;24.60;64.60;;;;;;5014317;28;20315;-66
2022/06/20 05:15:31;;;;;;;9.77;6.15;;;24.70;64.00;;;;;;5014229;28;20251;-66
2022/06/20 05:17:58;;;;;;;8.05;6.22;;;24.70;63.40;;;;;;5015768;28;20200;-66
2022/06/20 05:20:29;;;;;;;6.57;5.70;;;24.80;62.80;;;;;;5014215;28;20208;-66
2022/06/20 05:23:01;;;;;;;8.63;5.43;;;24.80;62.30;;;;;;5014237;28;20599;-65
2022/06/20 05:25:28;;;;;;;7.15;5.75;;;24.90;62.30;;;;;;5013515;28;20708;-66
2022/06/20 05:27:56;;;;;;;8.18;5.95;;;24.90;62.20;;;;;;5014328;28;20299;-67
2022/06/20 05:30:26;;;;;;;8.23;6.65;;;24.90;61.80;;;;;;5014232;28;20614;-67
2022/06/20 05:32:55;;;;;;;7.95;5.60;;;25.00;62.00;;;;;;5014165;28;20225;-66
2022/06/20 05:35:23;;;;;;;9.98;5.88;;;25.00;62.00;;;;;;5013998;28;20197;-66
2022/06/20 05:37:51;;;;;;;8.82;6.10;;;25.00;62.00;;;;;;5014164;28;20287;-66
2022/06/20 05:40:24;;;;;;;8.57;6.18;;;25.00;62.20;;;;;;5014012;28;20196;-66
2022/06/20 05:42:51;;;;;;;8.88;6.20;;;25.00;62.00;;;;;;5015316;28;20225;-67
2022/06/20 05:45:20;;;;;;;6.05;5.35;;;25.00;61.60;;;;;;5014325;28;20296;-66
2022/06/20 05:47:50;;;;;;;7.90;5.78;;;25.10;62.00;;;;;;5015346;28;20216;-66
2022/06/20 05:50:29;;;;;;;6.30;5.70;;;25.10;61.80;;;;;;5013936;28;20211;-65
2022/06/20 05:52:56;;;;;;;10.18;5.38;;;25.10;61.60;;;;;;5014694;28;20231;-66
2022/06/20 05:55:26;;;;;;;8.43;6.15;;;25.10;61.30;;;;;;5013562;28;20205;-66
2022/06/20 05:57:54;;;;;;;8.15;6.00;;;25.10;61.10;;;;;;5013673;28;20204;-66
2022/06/20 06:00:23;;;;;;;6.57;5.18;;;25.20;61.10;;;;;;5014874;28;20201;-66
2022/06/20 06:02:51;;;;;;;6.80;5.75;;;25.20;60.90;;;;;;5013403;28;20314;-66
2022/06/20 06:05:19;;;;;;;6.90;5.40;;;25.20;60.80;;;;;;5013617;28;20205;-66
2022/06/20 06:07:48;;;;;;;6.55;5.60;;;25.30;60.60;;;;;;5013737;28;20207;-65
2022/06/20 06:10:30;;;;;;;8.65;5.75;;;25.30;60.40;;;;;;5014658;28;20193;-66
2022/06/20 06:13:02;;;;;;;6.00;5.40;;;25.30;60.20;;;;;;5013407;28;20318;-66
2022/06/20 06:15:34;;;;;;;6.57;5.47;;;25.30;60.10;;;;;;5015429;28;20193;-67
2022/06/20 06:18:03;;;;;;;7.82;5.45;;;25.30;60.10;;;;;;5016113;28;20193;-67
2022/06/20 06:20:31;;;;;;;6.07;5.40;;;25.30;60.00;;;;;;5014579;28;20207;-66
2022/06/20 06:23:00;;;;;;;7.32;5.20;;;25.40;60.00;;;;;;5014103;28;20216;-66
2022/06/20 06:25:29;;;;;;;5.80;5.20;;;25.30;59.90;;;;;;5014983;28;20189;-66
2022/06/20 06:27:57;;;;;;;6.85;5.45;;;25.40;59.80;;;;;;5014844;28;20193;-66
2022/06/20 06:30:26;;;;;;;6.38;5.35;;;25.30;59.70;;;;;;5013234;28;20204;-65
2022/06/20 06:32:55;;;;;;;6.18;5.20;;;25.40;59.70;;;;;;5013085;28;20625;-67
2022/06/20 06:35:24;;;;;;;7.35;5.38;;;25.30;59.90;;;;;;5014237;28;20264;-67
2022/06/20 06:37:54;;;;;;;5.45;4.90;;;25.40;59.70;;;;;;5012954;28;20201;-66
2022/06/20 06:40:23;;;;;;;5.50;4.95;;;25.40;59.60;;;;;;5014222;28;20189;-66
2022/06/20 06:42:54;;;;;;;6.95;5.22;;;25.50;58.80;;;;;;5014051;28;20216;-66
2022/06/20 06:45:23;;;;;;;6.45;4.85;;;25.60;58.80;;;;;;5013008;28;20200;-66
2022/06/20 06:47:53;;;;;;;6.13;5.22;;;25.90;58.10;;;;;;5012684;28;20584;-67
2022/06/20 06:50:23;;;;;;;6.78;5.03;;;26.00;57.40;;;;;;5012679;28;20205;-66
2022/06/20 06:52:52;;;;;;;5.68;5.00;;;26.20;57.10;;;;;;5012657;28;20225;-66
2022/06/20 06:55:28;;;;;;;6.53;5.07;;;26.30;56.60;;;;;;5014331;28;20188;-65
2022/06/20 06:58:01;;;;;;;5.93;5.15;;;26.40;56.40;;;;;;5013161;28;20201;-66
2022/06/20 07:00:30;;;;;;;6.78;4.68;;;26.50;56.10;;;;;;5012931;28;20254;-66
2022/06/20 07:02:58;;;;;;;6.18;4.65;;;26.60;55.80;;;;;;5012817;28;20225;-66
2022/06/20 07:05:32;;;;;;;6.20;4.95;;;26.70;55.30;;;;;;5032052;28;20193;-67
2022/06/20 07:08:01;;;;;;;6.65;4.63;;;26.90;55.10;;;;;;5019932;28;20547;-66
2022/06/20 07:10:31;;;;;;;5.22;4.55;;;26.90;54.80;;;;;;5017206;28;20731;-67
2022/06/20 07:13:02;;;;;;;5.40;4.82;;;27.00;54.70;;;;;;5013591;28;20280;-66
2022/06/20 07:15:29;;;;;;;5.13;4.30;;;27.00;54.60;;;;;;5014696;28;20235;-66
2022/06/20 07:17:58;;;;;;;4.53;4.13;;;27.00;54.50;;;;;;5014024;28;20193;-66
2022/06/20 07:20:26;;;;;;;6.63;5.00;;;27.00;54.40;;;;;;5012502;28;20234;-66
2022/06/20 07:22:53;;;;;;;6.72;4.40;;;26.90;54.40;;;;;;5013463;28;20212;-66
2022/06/20 07:25:22;;;;;;;5.25;4.75;;;27.00;54.30;;;;;;5014197;28;20225;-66
2022/06/20 07:27:52;;;;;;;5.20;4.70;;;27.10;54.00;;;;;;5013862;28;20215;-66
2022/06/20 07:30:21;;;;;;;5.68;4.20;;;27.20;53.70;;;;;;5013758;28;20645;-66
2022/06/20 07:32:50;;;;;;;6.10;4.43;;;27.30;53.20;;;;;;5012398;28;20315;-66
2022/06/20 07:35:20;;;;;;;5.93;4.45;;;27.50;52.80;;;;;;5012373;28;20200;-65
2022/06/20 07:37:48;;;;;;;5.50;4.40;;;27.80;52.40;;;;;;5013763;28;20191;-66
2022/06/20 07:40:19;;;;;;;5.68;4.50;;;27.90;51.90;;;;;;5012652;28;20200;-66
2022/06/20 07:42:50;;;;;;;4.95;4.30;;;28.00;51.60;;;;;;5012156;28;20760;-66
2022/06/20 07:45:20;;;;;;;5.18;4.63;;;28.10;51.30;;;;;;5012113;28;20251;-66
2022/06/20 07:47:48;;;;;;;4.88;4.22;;;28.20;50.90;;;;;;5015046;28;20255;-65
2022/06/20 07:50:18;;;;;;;4.50;4.10;;;28.30;50.70;;;;;;5016191;28;20207;-66
2022/06/20 07:52:47;;;;;;;3.92;3.55;;;28.40;50.50;;;;;;5017018;28;20224;-66
2022/06/20 07:55:17;;;;;;;4.55;3.95;;;28.50;50.30;;;;;;5015996;28;20204;-65
2022/06/20 07:57:45;;;;;;;4.85;4.28;;;28.60;50.20;;;;;;5015997;28;20571;-66
2022/06/20 08:00:14;;;;;;;4.40;4.00;;;28.60;49.90;;;;;;5015860;28;20208;-67
2022/06/20 08:02:44;;;;;;;4.63;4.20;;;28.70;49.90;;;;;;5015689;28;20684;-66
2022/06/20 08:05:12;;;;;;;5.80;4.40;;;28.80;49.80;;;;;;5015872;28;20238;-66
2022/06/20 08:07:42;;;;;;;4.78;4.20;;;28.80;49.70;;;;;;5016725;28;20190;-66
2022/06/20 08:10:12;;;;;;;4.35;3.70;;;28.90;49.60;;;;;;5015702;28;20232;-66
2022/06/20 08:12:42;;;;;;;4.60;4.18;;;29.00;49.30;;;;;;5016719;28;20227;-66
2022/06/20 08:15:12;;;;;;;4.68;3.88;;;29.10;49.10;;;;;;5016857;28;20192;-66
2022/06/20 08:17:39;;;;;;;4.60;4.15;;;29.20;48.90;;;;;;5015440;28;20633;-65
2022/06/20 08:20:09;;;;;;;4.20;3.80;;;29.20;48.60;;;;;;5015318;28;20292;-66
2022/06/20 08:22:38;;;;;;;4.97;3.90;;;29.30;48.50;;;;;;5015272;28;20216;-66
2022/06/20 08:25:07;;;;;;;4.53;3.90;;;29.30;48.50;;;;;;5015441;28;20202;-66
2022/06/20 08:27:38;;;;;;;4.65;3.90;;;29.40;48.40;;;;;;5015267;28;20192;-66
2022/06/20 08:30:09;;;;;;;5.57;4.00;;;29.40;48.30;;;;;;5015038;28;20541;-65
2022/06/20 08:32:40;;;;;;;4.72;3.88;;;29.50;48.20;;;;;;5014973;28;20238;-66
2022/06/20 08:35:15;;;;;;;4.15;3.75;;;29.50;48.10;;;;;;5015042;28;20192;-66
2022/06/20 08:37:44;;;;;;;4.43;3.70;;;29.60;48.10;;;;;;5014854;28;20206;-65
2022/06/20 08:40:20;;;;;;;5.65;4.18;;;29.60;47.90;;;;;;5015089;28;20204;-67
2022/06/20 08:42:56;;;;;;;5.40;4.18;;;29.70;47.80;;;;;;5015229;28;20223;-65
2022/06/20 08:45:42;;;;;;;3.90;3.50;;;29.70;47.60;;;;;;5014909;28;20266;-66
2022/06/20 08:48:38;;;;;;;4.35;3.95;;;29.80;47.40;;;;;;5014416;28;20243;-66
2022/06/20 08:51:31;;;;;;;4.07;3.53;;;29.80;47.20;;;;;;5014975;28;20188;-66
2022/06/20 08:54:29;;;;;;;4.22;3.85;;;29.90;47.30;;;;;;5016350;28;20542;-66
2022/06/20 08:57:00;;;;;;;3.95;3.58;;;29.90;47.10;;;;;;5014672;28;20254;-66
2022/06/20 08:59:50;;;;;;;4.30;3.90;;;29.90;47.00;;;;;;5013874;28;20218;-66
2022/06/20 09:02:25;;;;;;;4.30;3.90;;;29.90;46.90;;;;;;5014695;28;20212;-66
2022/06/20 09:05:10;;;;;;;4.10;3.70;;;29.90;46.90;;;;;;5014652;28;20203;-66
2022/06/20 09:07:54;;;;;;;4.03;3.65;;;29.90;46.90;;;;;;5016113;28;20188;-66
2022/06/20 09:10:37;;;;;;;4.53;3.92;;;30.00;46.90;;;;;;5015810;28;20181;-66
2022/06/20 09:13:30;;;;;;;4.13;3.72;;;30.00;46.80;;;;;;5015478;28;20248;-66
2022/06/20 09:16:01;;;;;;;4.18;3.78;;;29.90;47.40;;;;;;5015672;28;20177;-66
2022/06/20 09:18:36;;;;;;;4.03;3.70;;;30.00;46.80;;;;;;5014496;28;20200;-65
2022/06/20 09:21:07;;;;;;;5.78;3.97;;;30.00;46.80;;;;;;5015509;28;20226;-66
2022/06/20 09:23:41;;;;;;;6.35;3.88;;;30.00;46.80;;;;;;5014108;28;20220;-67
2022/06/20 09:26:11;;;;;;;3.85;3.53;;;30.00;46.80;;;;;;5014376;28;20188;-67
2022/06/20 09:28:49;;;;;;;4.75;3.80;;;30.00;46.80;;;;;;5015377;28;20192;-66
2022/06/20 09:31:33;;;;;;;4.20;3.80;;;30.00;46.80;;;;;;5017640;28;20276;-66
2022/06/20 09:34:09;;;;;;;4.00;3.70;;;30.00;46.80;;;;;;5019027;28;20175;-66
2022/06/20 09:37:00;;;;;;;3.67;3.38;;;30.00;46.80;;;;;;5015617;28;20172;-66
2022/06/20 09:39:39;;;;;;;4.43;4.03;;;30.00;46.80;;;;;;5016954;28;20196;-66
2022/06/20 09:42:15;;;;;;;4.03;3.55;;;30.00;46.70;;;;;;5014470;28;20694;-66
2022/06/20 09:44:48;;;;;;;4.38;3.78;;;29.90;46.70;;;;;;5014065;28;20204;-67
2022/06/20 09:47:24;;;;;;;4.85;4.22;;;29.90;46.70;;;;;;5014076;28;20196;-66
2022/06/20 09:50:01;;;;;;;4.10;3.70;;;29.90;46.70;;;;;;5013791;28;20194;-66
2022/06/20 09:52:33;;;;;;;4.72;3.80;;;29.90;46.70;;;;;;5013424;28;20215;-66
2022/06/20 09:55:04;;;;;;;4.30;3.80;;;29.90;46.80;;;;;;5013840;28;20198;-65
2022/06/20 09:57:37;;;;;;;3.92;3.63;;;29.80;47.00;;;;;;5015128;28;20193;-66
2022/06/20 10:00:07;;;;;;;4.00;3.60;;;29.70;47.20;;;;;;5014229;28;20192;-66
2022/06/20 10:02:53;;;;;;;5.18;3.67;;;29.50;47.50;;;;;;5014875;28;20235;-66
2022/06/20 10:05:27;;;;;;;4.57;3.80;;;29.40;47.80;;;;;;5013620;28;20188;-66
2022/06/20 10:07:55;;;;;;;4.45;3.70;;;29.30;47.90;;;;;;5013497;28;20288;-66
2022/06/20 10:10:25;;;;;;;4.30;3.90;;;29.20;48.20;;;;;;5014490;28;20188;-66
2022/06/20 10:12:55;;;;;;;4.35;3.80;;;29.10;48.30;;;;;;5012908;28;20609;-66
2022/06/20 10:15:26;;;;;;;4.13;3.72;;;29.00;48.40;;;;;;5014771;28;20573;-66
2022/06/20 10:17:58;;;;;;;4.30;3.90;;;29.00;48.60;;;;;;5013178;28;20258;-66
2022/06/20 10:20:34;;;;;;;4.10;3.60;;;29.00;48.70;;;;;;5013112;28;20200;-66
2022/06/20 10:23:09;;;;;;;4.38;3.70;;;28.90;48.90;;;;;;5013086;28;20220;-67
2022/06/20 10:25:48;;;;;;;4.65;3.72;;;28.80;49.00;;;;;;5013183;28;20235;-66
2022/06/20 10:28:16;;;;;;;4.30;3.90;;;28.80;49.00;;;;;;5014711;28;20215;-67
2022/06/20 10:30:47;;;;;;;4.18;3.88;;;28.80;49.00;;;;;;5013047;28;20250;-65
2022/06/20 10:33:31;;;;;;;4.53;3.75;;;28.80;49.00;;;;;;5012941;28;20219;-67
2022/06/20 10:36:06;;;;;;;4.03;3.70;;;28.80;48.90;;;;;;5012910;28;20264;-65
2022/06/20 10:38:38;;;;;;;4.20;3.80;;;28.90;49.00;;;;;;5013004;28;20571;-65
2022/06/20 10:41:08;;;;;;;3.80;3.50;;;28.80;48.90;;;;;;5014473;28;20176;-66
2022/06/20 10:43:47;;;;;;;4.40;3.90;;;28.80;48.90;;;;;;5012950;28;20216;-66
2022/06/20 10:46:23;;;;;;;4.03;3.72;;;28.80;49.10;;;;;;5013232;28;20269;-66
2022/06/20 10:49:21;;;;;;;3.75;3.45;;;28.70;49.20;;;;;;5014585;28;20203;-67
2022/06/20 10:51:52;;;;;;;5.45;3.83;;;28.60;49.20;;;;;;5014090;28;20215;-67
2022/06/20 10:54:39;;;;;;;4.05;3.75;;;28.60;49.30;;;;;;5014460;28;20180;-67
2022/06/20 10:57:13;;;;;;;4.97;3.70;;;28.60;49.50;;;;;;5013049;28;20204;-66
2022/06/20 10:59:45;;;;;;;4.47;3.70;;;28.60;49.40;;;;;;5012559;28;20663;-66
2022/06/20 11:02:23;;;;;;;4.20;3.80;;;28.60;49.30;;;;;;5012935;28;20259;-65
2022/06/20 11:04:58;;;;;;;3.75;3.45;;;28.60;49.30;;;;;;5014078;28;20184;-65
2022/06/20 11:07:28;;;;;;;4.30;3.90;;;28.70;49.30;;;;;;5012580;28;20200;-67
2022/06/20 11:10:03;;;;;;;4.78;3.85;;;28.70;49.20;;;;;;5012337;28;20216;-67
2022/06/20 11:12:39;;;;;;;3.92;3.63;;;28.70;49.10;;;;;;5012171;28;20237;-66
2022/06/20 11:15:11;;;;;;;4.28;3.70;;;28.70;49.10;;;;;;5012672;28;20184;-66
2022/06/20 11:17:42;;;;;;;4.80;4.00;;;28.70;49.20;;;;;;5012523;28;20227;-67
2022/06/20 11:20:16;;;;;;;4.03;3.63;;;28.70;49.20;;;;;;5012367;28;20211;-66
2022/06/20 11:22:44;;;;;;;4.47;3.60;;;28.70;49.20;;;;;;5013010;28;20223;-65
2022/06/20 11:25:23;;;;;;;4.78;3.72;;;28.60;49.20;;;;;;5012220;28;20207;-65
2022/06/20 11:28:13;;;;;;;4.13;3.70;;;28.60;49.30;;;;;;5013426;28;20185;-66
2022/06/20 11:30:43;;;;;;;4.75;4.00;;;28.60;49.30;;;;;;5012132;28;20616;-66
2022/06/20 11:33:22;;;;;;;3.63;3.33;;;28.60;49.30;;;;;;5011818;28;20216;-66
2022/06/20 11:35:50;;;;;;;4.28;3.65;;;28.50;49.30;;;;;;5013397;28;20172;-66
2022/06/20 11:38:39;;;;;;;4.53;3.65;;;28.60;49.40;;;;;;5012102;28;20204;-66
2022/06/20 11:41:08;;;;;;;3.95;3.60;;;28.60;49.30;;;;;;5000269;28;20204;-66
2022/06/20 11:44:13;;;;;;;3.80;3.50;;;28.60;49.30;;;;;;5011842;28;20262;-66
2022/06/20 11:46:52;;;;;;;4.18;3.78;;;28.60;49.30;;;;;;5012263;28;20198;-66
2022/06/20 11:49:26;;;;;;;4.47;3.58;;;28.60;49.30;;;;;;5011833;28;20663;-67
2022/06/20 11:51:57;;;;;;;3.63;3.33;;;28.60;49.30;;;;;;5011861;28;20229;-66
2022/06/20 11:54:30;;;;;;;4.05;3.60;;;28.60;49.20;;;;;;5013126;28;20271;-66
2022/06/20 11:57:01;;;;;;;4.07;3.67;;;28.60;49.30;;;;;;5011795;28;20242;-66
2022/06/20 11:59:36;;;;;;;4.68;3.70;;;28.60;49.10;;;;;;5011812;28;20279;-66
2022/06/20 12:02:12;;;;;;;3.83;3.33;;;28.60;49.10;;;;;;5011992;28;20638;-66
2022/06/20 12:04:40;;;;;;;6.03;3.80;;;28.70;49.20;;;;;;5011952;28;20203;-67
2022/06/20 12:07:11;;;;;;;4.18;3.78;;;28.60;49.10;;;;;;5013088;28;20310;-67
2022/06/20 12:09:42;;;;;;;4.40;3.60;;;28.70;49.20;;;;;;5011957;28;20275;-67
2022/06/20 12:12:17;;;;;;;4.28;3.60;;;28.60;49.10;;;;;;5011612;28;20236;-66
2022/06/20 12:14:51;;;;;;;4.03;3.65;;;28.60;49.10;;;;;;5012046;28;20195;-67
2022/06/20 12:17:24;;;;;;;4.35;3.95;;;28.70;49.10;;;;;;5012706;28;20586;-66
2022/06/20 12:25:45;;;;;;;3.45;3.15;;;28.60;49.10;;;;;;5011771;28;20203;-66
2022/06/20 12:28:18;;;;;;;3.92;3.63;;;28.60;49.10;;;;;;5011905;28;20254;-65
2022/06/20 12:30:47;;;;;;;5.28;3.70;;;28.60;49.20;;;;;;5011634;28;20303;-66
2022/06/20 12:33:14;;;;;;;3.95;3.60;;;28.60;49.20;;;;;;5011717;28;20216;-66
2022/06/20 12:35:43;;;;;;;4.05;3.70;;;28.60;49.20;;;;;;5016828;28;20276;-66
2022/06/20 12:38:14;;;;;;;3.90;3.60;;;28.60;49.30;;;;;;5015037;28;20223;-66
2022/06/20 12:40:44;;;;;;;5.07;3.70;;;28.60;49.30;;;;;;5015092;28;20242;-66
2022/06/20 12:43:12;;;;;;;3.65;3.35;;;28.60;49.20;;;;;;5014937;28;20216;-66
2022/06/20 12:46:06;;;;;;;4.40;3.38;;;28.60;49.20;;;;;;5014816;28;20203;-66
2022/06/20 12:48:57;;;;;;;3.97;3.50;;;28.60;49.20;;;;;;5014875;28;20192;-66
2022/06/20 12:51:31;;;;;;;3.53;3.22;;;28.60;49.20;;;;;;5015198;28;20212;-66
2022/06/20 12:54:03;;;;;;;5.13;3.78;;;28.60;49.30;;;;;;5014800;28;20299;-66
2022/06/20 12:56:39;;;;;;;4.00;3.60;;;28.60;49.30;;;;;;5014626;28;20192;-67
2022/06/20 12:59:28;;;;;;;4.40;3.53;;;28.50;49.40;;;;;;5014601;28;20230;-66
2022/06/20 13:02:04;;;;;;;4.40;3.60;;;28.50;49.30;;;;;;4998329;28;20793;-66
2022/06/20 13:04:44;;;;;;;3.95;3.63;;;28.50;50.10;;;;;;5014947;28;20195;-66
2022/06/20 13:07:31;;;;;;;4.25;3.50;;;28.50;49.50;;;;;;5016129;28;20180;-66
2022/06/20 13:10:22;;;;;;;3.80;3.50;;;28.40;49.50;;;;;;5014576;28;20191;-67
2022/06/20 13:13:07;;;;;;;3.85;3.55;;;28.40;49.60;;;;;;5014086;28;20228;-66
2022/06/20 13:15:48;;;;;;;4.68;3.80;;;28.50;49.70;;;;;;5016161;28;20172;-66
2022/06/20 13:18:52;;;;;;;3.45;3.13;;;28.40;49.60;;;;;;5014748;28;20200;-66
2022/06/20 13:21:23;;;;;;;4.97;3.50;;;28.40;49.60;;;;;;5014331;28;20188;-66
2022/06/20 13:24:01;;;;;;;4.10;3.50;;;28.40;50.20;;;;;;5014169;28;20263;-66
2022/06/20 13:26:33;;;;;;;3.65;3.35;;;28.30;49.70;;;;;;5014093;28;20222;-67